Time;durP1;ratioP1;P1;durP2;ratioP2;P2;SDS_P1;SDS_P2;PMS_P1;PMS_P2;Temp;Humidity;BMP_temperature;BMP_pressure;BME280_temperature;BME280_humidity;BME280_pressure;Samples;Min_cycle;Max_cycle;Signal;HPM_P1;HPM_P2
2023/07/31 00:02:22;;;;;;;;;;;19.80;99.90;;;;;;6020652;23;19932;-66
2023/07/31 00:04:48;;;;;;;;;;;19.80;99.90;;;;;;6016378;23;20456;-66
2023/07/31 00:07:14;;;;;;;;;;;19.80;99.90;;;;;;6020617;23;19924;-66
2023/07/31 00:09:40;;;;;;;;;;;19.80;99.90;;;;;;6019333;23;20229;-69
2023/07/31 00:12:05;;;;;;;;;;;19.80;99.90;;;;;;6018741;23;20255;-69
2023/07/31 00:14:31;;;;;;;;;;;19.90;99.90;;;;;;6017428;23;19927;-69
2023/07/31 00:16:56;;;;;;;;;;;19.90;99.90;;;;;;6021907;23;19933;-69
2023/07/31 00:19:22;;;;;;;;;;;19.90;99.90;;;;;;6018965;23;19961;-69
2023/07/31 00:21:47;;;;;;;;;;;19.90;99.90;;;;;;6020837;23;20006;-69
2023/07/31 00:24:13;;;;;;;;;;;19.90;99.90;;;;;;6018329;23;19961;-70
2023/07/31 00:26:38;;;;;;;;;;;19.90;99.90;;;;;;6017288;23;20378;-70
2023/07/31 00:29:04;;;;;;;;;;;19.90;99.90;;;;;;6019368;23;20025;-70
2023/07/31 00:31:29;;;;;;;;;;;19.90;99.90;;;;;;6022895;23;20605;-70
2023/07/31 00:33:55;;;;;;;;;;;19.90;99.90;;;;;;6018984;23;19989;-70
2023/07/31 00:36:20;;;;;;;;;;;19.80;99.90;;;;;;6022557;23;19982;-70
2023/07/31 00:38:46;;;;;;;;;;;19.80;99.90;;;;;;6021257;23;20460;-70
2023/07/31 00:41:11;;;;;;;;;;;19.80;99.90;;;;;;6017339;23;19970;-69
2023/07/31 00:43:37;;;;;;;;;;;19.70;99.90;;;;;;6018502;23;20050;-70
2023/07/31 00:46:02;;;;;;;;;;;19.70;99.90;;;;;;6019363;23;20006;-70
2023/07/31 00:48:28;;;;;;;;;;;19.70;99.90;;;;;;6022524;23;20305;-70
2023/07/31 00:50:54;;;;;;;;;;;19.60;99.90;;;;;;6016251;23;19982;-70
2023/07/31 00:53:19;;;;;;;;;;;19.50;99.90;;;;;;6018356;23;19934;-69
2023/07/31 00:55:45;;;;;;;;;;;19.50;99.90;;;;;;6017545;23;20003;-69
2023/07/31 00:58:11;;;;;;;;;;;19.50;99.90;;;;;;6016580;23;19932;-69
2023/07/31 01:00:36;;;;;;;;;;;19.50;99.90;;;;;;6014845;23;20266;-68
2023/07/31 01:03:02;;;;;;;;;;;19.50;99.90;;;;;;5990031;23;19934;-67
2023/07/31 01:05:39;;;;;;;;;;;19.50;99.90;;;;;;6010344;23;20005;-68
2023/07/31 01:08:23;;;;;;;;;;;19.50;99.90;;;;;;6018295;23;19926;-67
2023/07/31 01:10:55;;;;;;;;;;;19.40;99.90;;;;;;6013653;23;19929;-67
2023/07/31 01:13:21;;;;;;;;;;;19.40;99.90;;;;;;6013760;23;19957;-67
2023/07/31 01:15:46;;;;;;;;;;;19.40;99.90;;;;;;6016036;23;19963;-67
2023/07/31 01:18:12;;;;;;;;;;;19.40;99.90;;;;;;6017634;23;19937;-68
2023/07/31 01:20:39;;;;;;;;;;;19.40;99.90;;;;;;6016425;23;20172;-67
2023/07/31 01:23:11;;;;;;;;;;;19.30;99.90;;;;;;6016390;23;19931;-67
2023/07/31 01:25:52;;;;;;;;;;;19.30;99.90;;;;;;6011729;23;19927;-67
2023/07/31 01:28:19;;;;;;;;;;;19.30;99.90;;;;;;6014469;23;19965;-68
2023/07/31 01:30:47;;;;;;;;;;;19.20;99.90;;;;;;6016241;23;19940;-67
2023/07/31 01:33:14;;;;;;;;;;;19.20;99.90;;;;;;6014689;23;19930;-68
2023/07/31 01:35:39;;;;;;;;;;;19.20;99.90;;;;;;5990312;23;19992;-67
2023/07/31 01:38:05;;;;;;;;;;;19.30;99.90;;;;;;6016737;23;20685;-67
2023/07/31 01:40:31;;;;;;;;;;;19.20;99.90;;;;;;6011907;23;19955;-67
2023/07/31 01:42:57;;;;;;;;;;;19.20;99.90;;;;;;6013727;23;19987;-67
2023/07/31 01:45:22;;;;;;;;;;;19.20;99.90;;;;;;6012853;23;19948;-67
2023/07/31 01:47:48;;;;;;;;;;;19.20;99.90;;;;;;6014445;23;20126;-67
2023/07/31 01:50:13;;;;;;;;;;;19.10;99.90;;;;;;6009771;23;20053;-67
2023/07/31 01:52:39;;;;;;;;;;;19.10;99.90;;;;;;6015008;23;19932;-68
2023/07/31 01:55:04;;;;;;;;;;;19.10;99.90;;;;;;6014714;23;19996;-67
2023/07/31 01:57:30;;;;;;;;;;;19.10;99.90;;;;;;6017041;23;20002;-67
2023/07/31 01:59:55;;;;;;;;;;;19.10;99.90;;;;;;5989459;23;20006;-67
2023/07/31 02:02:22;;;;;;;;;;;19.10;99.90;;;;;;6018439;23;19994;-67
2023/07/31 02:04:48;;;;;;;;;;;19.10;99.90;;;;;;5989181;23;20428;-68
2023/07/31 02:07:14;;;;;;;;;;;19.10;99.90;;;;;;6018145;23;19928;-68
2023/07/31 02:09:39;;;;;;;;;;;19.10;99.90;;;;;;6014401;23;19931;-68
2023/07/31 02:12:05;;;;;;;;;;;19.20;99.90;;;;;;6013111;23;19943;-67
2023/07/31 02:14:31;;;;;;;;;;;19.10;99.90;;;;;;6014595;23;19943;-68
2023/07/31 02:16:56;;;;;;;;;;;19.10;99.90;;;;;;6014868;23;19995;-67
2023/07/31 02:19:22;;;;;;;;;;;19.10;99.90;;;;;;6015762;23;19952;-67
2023/07/31 02:21:47;;;;;;;;;;;19.10;99.90;;;;;;6018022;23;19931;-67
2023/07/31 02:24:12;;;;;;;;;;;19.10;99.90;;;;;;6018437;23;20693;-67
2023/07/31 02:26:38;;;;;;;;;;;19.10;99.90;;;;;;6016581;23;19937;-67
2023/07/31 02:29:03;;;;;;;;;;;19.00;99.90;;;;;;6012302;23;20361;-67
2023/07/31 02:31:29;;;;;;;;;;;19.00;99.90;;;;;;6018158;23;19959;-67
2023/07/31 02:33:54;;;;;;;;;;;18.90;99.90;;;;;;6016534;23;20362;-67
2023/07/31 02:36:20;;;;;;;;;;;18.80;99.90;;;;;;6017585;23;19982;-68
2023/07/31 02:38:45;;;;;;;;;;;18.80;99.90;;;;;;6018732;23;20384;-67
2023/07/31 02:41:11;;;;;;;;;;;18.80;99.90;;;;;;6020496;23;19934;-67
2023/07/31 02:43:36;;;;;;;;;;;18.80;99.90;;;;;;6014925;23;20257;-67
2023/07/31 02:46:02;;;;;;;;;;;18.80;99.90;;;;;;6019016;23;19958;-67
2023/07/31 02:48:27;;;;;;;;;;;18.80;99.90;;;;;;6018532;23;19931;-68
2023/07/31 02:50:53;;;;;;;;;;;18.70;99.90;;;;;;6017430;23;19998;-67
2023/07/31 02:53:18;;;;;;;;;;;18.70;99.90;;;;;;6017900;23;19931;-67
2023/07/31 02:55:44;;;;;;;;;;;18.80;99.90;;;;;;6017480;23;19953;-68
2023/07/31 02:58:09;;;;;;;;;;;18.70;99.90;;;;;;6018370;23;19933;-68
2023/07/31 03:00:35;;;;;;;;;;;18.80;99.90;;;;;;6014702;23;20148;-67
2023/07/31 03:03:00;;;;;;;;;;;18.80;99.90;;;;;;6016152;23;20352;-67
2023/07/31 03:05:26;;;;;;;;;;;18.70;99.90;;;;;;6014745;23;19925;-67
2023/07/31 03:07:51;;;;;;;;;;;18.70;99.90;;;;;;6016675;23;19944;-67
2023/07/31 03:10:17;;;;;;;;;;;18.70;99.90;;;;;;6018756;23;19927;-67
2023/07/31 03:12:46;;;;;;;;;;;18.70;99.90;;;;;;6015258;23;19932;-67
2023/07/31 03:15:11;;;;;;;;;;;18.60;99.90;;;;;;6014399;23;19962;-67
2023/07/31 03:17:37;;;;;;;;;;;18.60;99.90;;;;;;6017383;23;20222;-67
2023/07/31 03:20:03;;;;;;;;;;;18.50;99.90;;;;;;6017010;23;19961;-68
2023/07/31 03:22:28;;;;;;;;;;;18.50;99.90;;;;;;6016833;23;19936;-67
2023/07/31 03:24:54;;;;;;;;;;;18.50;99.90;;;;;;6014761;23;20090;-67
2023/07/31 03:27:19;;;;;;;;;;;18.40;99.90;;;;;;6015575;23;19930;-67
2023/07/31 03:29:45;;;;;;;;;;;18.40;99.90;;;;;;6012999;23;19931;-68
2023/07/31 03:32:10;;;;;;;;;;;18.40;99.90;;;;;;5990952;23;19936;-67
2023/07/31 03:34:36;;;;;;;;;;;18.30;99.90;;;;;;6013814;23;20585;-67
2023/07/31 03:37:01;;;;;;;;;;;18.30;99.90;;;;;;6014830;23;19936;-67
2023/07/31 03:39:27;;;;;;;;;;;18.30;99.90;;;;;;6012717;23;20477;-67
2023/07/31 03:41:52;;;;;;;;;;;18.30;99.90;;;;;;6015584;23;19983;-67
2023/07/31 03:44:18;;;;;;;;;;;18.20;99.90;;;;;;6015706;23;19971;-67
2023/07/31 03:46:43;;;;;;;;;;;18.20;99.90;;;;;;6016868;23;20415;-67
2023/07/31 03:49:09;;;;;;;;;;;18.20;99.90;;;;;;6016086;23;20713;-67
2023/07/31 03:51:34;;;;;;;;;;;18.20;99.90;;;;;;6014688;23;19927;-67
2023/07/31 03:54:00;;;;;;;;;;;18.20;99.90;;;;;;6019229;23;20658;-67
2023/07/31 03:56:26;;;;;;;;;;;18.20;99.90;;;;;;6016294;23;20299;-67
2023/07/31 03:58:51;;;;;;;;;;;18.30;99.90;;;;;;6013489;23;20503;-67
2023/07/31 04:01:17;;;;;;;;;;;18.30;99.90;;;;;;6014548;23;19968;-67
2023/07/31 04:03:43;;;;;;;;;;;18.40;99.90;;;;;;6015811;23;19951;-67
2023/07/31 04:06:08;;;;;;;;;;;18.50;99.90;;;;;;6014921;23;20389;-67
2023/07/31 04:08:34;;;;;;;;;;;18.60;99.90;;;;;;6016396;23;19933;-66
2023/07/31 04:10:59;;;;;;;;;;;18.70;99.90;;;;;;6014349;23;20068;-66
2023/07/31 04:13:27;;;;;;;;;;;18.70;99.90;;;;;;6014941;23;19932;-65
2023/07/31 04:15:54;;;;;;;;;;;18.80;99.90;;;;;;6011335;23;19964;-66
2023/07/31 04:18:19;;;;;;;;;;;18.90;99.90;;;;;;6017206;23;19929;-66
2023/07/31 04:20:45;;;;;;;;;;;19.00;99.90;;;;;;6012931;23;20003;-66
2023/07/31 04:23:11;;;;;;;;;;;19.00;99.90;;;;;;6015921;23;19930;-65
2023/07/31 04:25:36;;;;;;;;;;;19.10;99.90;;;;;;6017693;23;19924;-66
2023/07/31 04:28:02;;;;;;;;;;;19.10;99.90;;;;;;6016598;23;19928;-66
2023/07/31 04:33:11;;;;;;;;;;;19.20;99.90;;;;;;6017848;23;19933;-66
2023/07/31 04:35:37;;;;;;;;;;;19.30;99.90;;;;;;6016080;23;19930;-66
2023/07/31 04:38:02;;;;;;;;;;;19.30;99.90;;;;;;6016206;23;20006;-66
2023/07/31 04:40:28;;;;;;;;;;;19.40;99.90;;;;;;5988866;23;20037;-66
2023/07/31 04:42:53;;;;;;;;;;;19.50;99.90;;;;;;6016054;23;19930;-66
2023/07/31 04:45:19;;;;;;;;;;;19.50;99.90;;;;;;6014272;23;19966;-66
2023/07/31 04:47:44;;;;;;;;;;;19.50;99.90;;;;;;6017979;23;19927;-66
2023/07/31 04:50:10;;;;;;;;;;;19.60;99.90;;;;;;6014428;23;19935;-66
2023/07/31 04:52:36;;;;;;;;;;;19.60;99.90;;;;;;6015912;23;19933;-66
2023/07/31 04:55:01;;;;;;;;;;;19.60;99.90;;;;;;6014602;23;20009;-66
2023/07/31 04:57:27;;;;;;;;;;;19.60;99.90;;;;;;6014272;23;19933;-66
2023/07/31 04:59:52;;;;;;;;;;;19.60;99.90;;;;;;6015743;23;19966;-67
2023/07/31 05:02:18;;;;;;;;;;;19.60;99.90;;;;;;5992723;23;19935;-66
2023/07/31 05:04:43;;;;;;;;;;;19.60;99.90;;;;;;6014759;23;19927;-66
2023/07/31 05:07:09;;;;;;;;;;;19.70;99.90;;;;;;6016815;23;19992;-66
2023/07/31 05:09:34;;;;;;;;;;;19.70;99.90;;;;;;6015172;23;19929;-66
2023/07/31 05:12:00;;;;;;;;;;;19.80;99.90;;;;;;6014204;23;19925;-66
2023/07/31 05:14:26;;;;;;;;;;;19.80;99.90;;;;;;6011900;23;20084;-66
2023/07/31 05:16:51;;;;;;;;;;;19.80;99.90;;;;;;6015034;23;19962;-66
2023/07/31 05:19:17;;;;;;;;;;;19.80;99.90;;;;;;6017017;23;20309;-66
2023/07/31 05:21:43;;;;;;;;;;;19.80;99.90;;;;;;6017229;23;19932;-66
2023/07/31 05:24:09;;;;;;;;;;;19.80;99.90;;;;;;6014972;23;19931;-66
2023/07/31 05:26:35;;;;;;;;;;;19.80;99.90;;;;;;6012737;23;20022;-66
2023/07/31 05:29:00;;;;;;;;;;;19.80;99.90;;;;;;6012855;23;20037;-66
2023/07/31 05:31:26;;;;;;;;;;;19.70;99.90;;;;;;6016368;23;19928;-66
2023/07/31 05:33:51;;;;;;;;;;;19.70;99.90;;;;;;6016671;23;19946;-66
2023/07/31 05:36:17;;;;;;;;;;;19.70;99.90;;;;;;6015916;23;19978;-66
2023/07/31 05:38:46;;;;;;;;;;;19.80;99.90;;;;;;6014311;23;19937;-66
2023/07/31 05:41:12;;;;;;;;;;;19.90;99.90;;;;;;6014684;23;19986;-66
2023/07/31 05:43:37;;;;;;;;;;;19.90;99.90;;;;;;6014512;23;20242;-66
2023/07/31 05:46:03;;;;;;;;;;;19.90;99.90;;;;;;6014398;23;20437;-66
2023/07/31 05:48:29;;;;;;;;;;;19.90;99.90;;;;;;6017409;23;19944;-66
2023/07/31 05:50:54;;;;;;;;;;;20.00;99.90;;;;;;6016288;23;20262;-66
2023/07/31 05:53:20;;;;;;;;;;;20.00;99.90;;;;;;6015221;23;19931;-66
2023/07/31 05:55:45;;;;;;;;;;;20.10;99.90;;;;;;6018388;23;20541;-66
2023/07/31 05:58:10;;;;;;;;;;;20.20;99.90;;;;;;6015972;23;20188;-66
2023/07/31 06:00:36;;;;;;;;;;;20.10;99.90;;;;;;6013056;23;19980;-67
2023/07/31 06:03:02;;;;;;;;;;;20.00;99.90;;;;;;6015995;23;19931;-66
2023/07/31 06:05:29;;;;;;;;;;;19.90;99.90;;;;;;6017465;23;19928;-66
2023/07/31 06:07:55;;;;;;;;;;;19.90;99.90;;;;;;6015421;23;19932;-67
2023/07/31 06:10:21;;;;;;;;;;;19.80;99.90;;;;;;6011654;23;19930;-67
2023/07/31 06:12:46;;;;;;;;;;;19.80;99.90;;;;;;6012093;23;20600;-67
2023/07/31 06:15:12;;;;;;;;;;;19.80;99.90;;;;;;6016735;23;20475;-67
2023/07/31 06:17:37;;;;;;;;;;;19.80;99.90;;;;;;6017371;23;20004;-66
2023/07/31 06:20:06;;;;;;;;;;;19.80;99.90;;;;;;6014656;23;20655;-66
2023/07/31 06:22:31;;;;;;;;;;;19.80;99.90;;;;;;6014664;23;19935;-67
2023/07/31 06:24:58;;;;;;;;;;;20.00;99.90;;;;;;6016573;23;20295;-67
2023/07/31 06:27:23;;;;;;;;;;;20.10;99.90;;;;;;5988417;23;19938;-66
2023/07/31 06:29:49;;;;;;;;;;;20.30;99.90;;;;;;6015240;23;19933;-67
2023/07/31 06:32:14;;;;;;;;;;;20.40;99.90;;;;;;6013271;23;19983;-66
2023/07/31 06:34:40;;;;;;;;;;;20.50;99.90;;;;;;6012810;23;20784;-67
2023/07/31 06:37:05;;;;;;;;;;;20.60;99.90;;;;;;5990756;23;19931;-67
2023/07/31 06:39:31;;;;;;;;;;;20.70;99.90;;;;;;6011198;23;19954;-67
2023/07/31 06:41:56;;;;;;;;;;;20.70;99.90;;;;;;6016827;23;19920;-68
2023/07/31 06:44:22;;;;;;;;;;;20.80;99.90;;;;;;6013236;23;19964;-68
2023/07/31 06:46:47;;;;;;;;;;;20.90;99.90;;;;;;6015093;23;19989;-68
2023/07/31 06:49:15;;;;;;;;;;;21.00;99.90;;;;;;6016427;23;20648;-68
2023/07/31 06:51:40;;;;;;;;;;;21.00;99.90;;;;;;6012864;23;19924;-68
2023/07/31 06:54:06;;;;;;;;;;;21.00;99.90;;;;;;6015053;23;19933;-68
2023/07/31 06:56:32;;;;;;;;;;;20.90;99.90;;;;;;6012152;23;19930;-68
2023/07/31 06:58:57;;;;;;;;;;;21.00;99.90;;;;;;6010712;23;20000;-68
2023/07/31 07:01:23;;;;;;;;;;;21.10;99.90;;;;;;6013612;23;19928;-68
2023/07/31 07:03:50;;;;;;;;;;;21.20;99.90;;;;;;6015509;23;19930;-68
2023/07/31 07:06:16;;;;;;;;;;;21.20;99.90;;;;;;6013164;23;19935;-68
2023/07/31 07:08:42;;;;;;;;;;;21.30;99.90;;;;;;6014299;23;19922;-68
2023/07/31 07:11:08;;;;;;;;;;;21.40;99.90;;;;;;6016566;23;20394;-68
2023/07/31 07:13:33;;;;;;;;;;;21.50;99.90;;;;;;6013457;23;19934;-66
2023/07/31 07:15:59;;;;;;;;;;;21.70;99.90;;;;;;6011455;23;20391;-66
2023/07/31 07:18:24;;;;;;;;;;;21.70;99.90;;;;;;6016834;23;20015;-67
2023/07/31 07:20:51;;;;;;;;;;;21.90;99.90;;;;;;6012349;23;20026;-67
2023/07/31 07:23:16;;;;;;;;;;;22.10;99.90;;;;;;6016915;23;19992;-67
2023/07/31 07:25:43;;;;;;;;;;;22.30;99.90;;;;;;6016083;23;19961;-66
2023/07/31 07:28:08;;;;;;;;;;;22.40;99.90;;;;;;5987516;23;19926;-66
2023/07/31 07:30:34;;;;;;;;;;;22.40;99.90;;;;;;6016110;23;19947;-67
2023/07/31 07:33:00;;;;;;;;;;;22.40;99.90;;;;;;6012683;23;20261;-66
2023/07/31 07:35:25;;;;;;;;;;;22.50;99.90;;;;;;6014505;23;20703;-66
2023/07/31 07:37:51;;;;;;;;;;;22.30;99.90;;;;;;6016549;23;20529;-67
2023/07/31 07:40:16;;;;;;;;;;;22.20;99.90;;;;;;6014276;23;20024;-67
2023/07/31 07:42:42;;;;;;;;;;;22.30;99.90;;;;;;6012546;23;19931;-66
2023/07/31 07:45:08;;;;;;;;;;;22.40;99.90;;;;;;6008039;23;19970;-67
2023/07/31 07:47:33;;;;;;;;;;;22.40;99.90;;;;;;6006980;23;19931;-66
2023/07/31 07:49:59;;;;;;;;;;;22.40;99.90;;;;;;6005308;23;20339;-67
2023/07/31 07:52:24;;;;;;;;;;;22.40;99.90;;;;;;6008790;23;20175;-68
2023/07/31 07:54:50;;;;;;;;;;;22.30;99.90;;;;;;6010276;23;20430;-68
2023/07/31 07:57:16;;;;;;;;;;;22.40;99.90;;;;;;6010041;23;20296;-68
2023/07/31 07:59:42;;;;;;;;;;;22.50;99.90;;;;;;6007911;23;19955;-68
2023/07/31 08:02:07;;;;;;;;;;;22.50;99.90;;;;;;6011653;23;19920;-68
2023/07/31 08:04:33;;;;;;;;;;;22.60;99.90;;;;;;6011900;23;19924;-68
2023/07/31 08:06:58;;;;;;;;;;;22.60;99.90;;;;;;6009313;23;19936;-68
2023/07/31 08:09:24;;;;;;;;;;;22.80;99.90;;;;;;6014639;23;20075;-68
2023/07/31 08:11:49;;;;;;;;;;;22.80;99.90;;;;;;6008809;23;19954;-68
2023/07/31 08:14:15;;;;;;;;;;;22.80;99.90;;;;;;6010571;23;20585;-68
2023/07/31 08:16:40;;;;;;;;;;;22.80;99.90;;;;;;6012163;23;20353;-68
2023/07/31 08:19:06;;;;;;;;;;;22.70;99.90;;;;;;6016150;23;20550;-68
2023/07/31 08:21:31;;;;;;;;;;;22.50;99.90;;;;;;6013551;23;20421;-67
2023/07/31 08:23:57;;;;;;;;;;;22.50;99.90;;;;;;6012695;23;20393;-68
2023/07/31 08:26:23;;;;;;;;;;;22.50;99.90;;;;;;5991207;23;20290;-68
2023/07/31 08:28:48;;;;;;;;;;;22.40;99.90;;;;;;6011920;23;19987;-68
2023/07/31 08:31:14;;;;;;;;;;;22.50;99.90;;;;;;6016212;23;20386;-69
2023/07/31 08:33:40;;;;;;;;;;;22.60;99.90;;;;;;6018422;23;19942;-69
2023/07/31 08:36:05;;;;;;;;;;;22.70;99.90;;;;;;6009227;23;20363;-68
2023/07/31 08:38:31;;;;;;;;;;;22.60;99.90;;;;;;6020966;23;19926;-68
2023/07/31 08:40:57;;;;;;;;;;;22.60;99.90;;;;;;5994271;23;19964;-68
2023/07/31 08:43:24;;;;;;;;;;;22.70;99.90;;;;;;6015491;23;19960;-69
2023/07/31 08:45:50;;;;;;;;;;;22.70;99.90;;;;;;6017889;23;19957;-69
2023/07/31 08:48:17;;;;;;;;;;;22.80;99.90;;;;;;6020325;23;19959;-68
2023/07/31 08:50:42;;;;;;;;;;;22.90;99.90;;;;;;5996301;23;19928;-70
2023/07/31 08:53:08;;;;;;;;;;;22.90;99.90;;;;;;6019683;23;20649;-71
2023/07/31 08:55:34;;;;;;;;;;;22.80;99.90;;;;;;6017664;23;19963;-71
2023/07/31 08:58:00;;;;;;;;;;;22.80;99.90;;;;;;6013975;23;20484;-70
2023/07/31 09:00:25;;;;;;;;;;;22.90;99.90;;;;;;5988875;23;20367;-67
2023/07/31 09:02:56;;;;;;;;;;;23.00;99.90;;;;;;6014258;23;20128;-65
2023/07/31 09:05:22;;;;;;;;;;;22.90;99.90;;;;;;6015027;23;19929;-66
2023/07/31 09:07:49;;;;;;;;;;;23.00;99.90;;;;;;6018110;23;20117;-66
2023/07/31 09:10:15;;;;;;;;;;;23.10;99.90;;;;;;6015600;23;19924;-65
2023/07/31 09:12:40;;;;;;;;;;;23.10;99.90;;;;;;6020835;23;19925;-65
2023/07/31 09:15:06;;;;;;;;;;;23.10;99.90;;;;;;6020477;23;19936;-65
2023/07/31 09:17:32;;;;;;;;;;;23.20;99.90;;;;;;6020311;23;19928;-65
2023/07/31 09:20:12;;;;;;;;;;;23.30;99.90;;;;;;6020972;23;20343;-65
2023/07/31 09:22:37;;;;;;;;;;;23.30;99.90;;;;;;6014094;23;20441;-66
2023/07/31 09:25:16;;;;;;;;;;;23.10;99.90;;;;;;6014386;23;19931;-66
2023/07/31 09:27:46;;;;;;;;;;;23.00;99.90;;;;;;6016857;23;19932;-67
2023/07/31 09:30:11;;;;;;;;;;;23.00;99.90;;;;;;6018777;23;19921;-68
2023/07/31 09:32:37;;;;;;;;;;;23.00;99.90;;;;;;6018969;23;20126;-68
2023/07/31 09:35:13;;;;;;;;;;;23.10;99.90;;;;;;6018840;23;19939;-68
2023/07/31 09:37:38;;;;;;;;;;;23.10;99.90;;;;;;6015513;23;20485;-68
2023/07/31 09:40:04;;;;;;;;;;;23.10;99.90;;;;;;6017996;23;20034;-65
2023/07/31 09:42:31;;;;;;;;;;;23.10;99.90;;;;;;6016218;23;19958;-64
2023/07/31 09:45:07;;;;;;;;;;;23.00;99.90;;;;;;6013504;23;20282;-64
2023/07/31 09:47:32;;;;;;;;;;;23.00;99.90;;;;;;6011932;23;20699;-65
2023/07/31 09:49:58;;;;;;;;;;;23.10;99.90;;;;;;6017383;23;19930;-65
2023/07/31 09:52:25;;;;;;;;;;;23.00;99.90;;;;;;6018537;23;19928;-66
2023/07/31 09:54:51;;;;;;;;;;;23.10;99.90;;;;;;6017625;23;19920;-66
2023/07/31 09:57:17;;;;;;;;;;;23.10;99.90;;;;;;6017765;23;20436;-66
2023/07/31 09:59:42;;;;;;;;;;;23.10;99.90;;;;;;5995907;23;20055;-72
2023/07/31 10:02:13;;;;;;;;;;;23.20;99.90;;;;;;6023789;23;20687;-72
2023/07/31 10:04:38;;;;;;;;;;;23.20;99.90;;;;;;6012738;23;19925;-71
2023/07/31 10:07:04;;;;;;;;;;;23.30;99.90;;;;;;6016231;23;19999;-71
2023/07/31 10:09:31;;;;;;;;;;;23.30;99.90;;;;;;6020482;23;19935;-72
2023/07/31 10:11:59;;;;;;;;;;;23.40;99.90;;;;;;6016737;23;19930;-72
2023/07/31 10:14:26;;;;;;;;;;;23.30;99.90;;;;;;6017547;23;20025;-73
2023/07/31 10:16:52;;;;;;;;;;;23.30;99.90;;;;;;6019471;23;19938;-74
2023/07/31 10:19:18;;;;;;;;;;;23.20;99.90;;;;;;6016447;23;19963;-72
2023/07/31 10:21:45;;;;;;;;;;;23.30;99.90;;;;;;6018579;23;19930;-72
2023/07/31 10:24:11;;;;;;;;;;;23.50;99.90;;;;;;6020338;23;19923;-72
2023/07/31 10:26:38;;;;;;;;;;;23.50;99.90;;;;;;6021208;23;19921;-69
2023/07/31 10:29:05;;;;;;;;;;;23.50;99.90;;;;;;6018366;23;19931;-72
2023/07/31 10:31:31;;;;;;;;;;;23.50;99.90;;;;;;6016225;23;19927;-72
2023/07/31 10:33:59;;;;;;;;;;;23.70;99.90;;;;;;6016509;23;20366;-70
2023/07/31 10:36:24;;;;;;;;;;;23.70;99.90;;;;;;5992609;23;19968;-69
2023/07/31 10:38:52;;;;;;;;;;;23.80;99.90;;;;;;6017572;23;20707;-72
2023/07/31 10:41:18;;;;;;;;;;;23.80;99.90;;;;;;6019745;23;19984;-70
2023/07/31 10:43:46;;;;;;;;;;;23.90;99.90;;;;;;6017913;23;20680;-70
2023/07/31 10:46:12;;;;;;;;;;;23.90;99.90;;;;;;6019886;23;19980;-69
2023/07/31 10:48:38;;;;;;;;;;;24.00;99.90;;;;;;6011534;23;19924;-68
2023/07/31 10:51:10;;;;;;;;;;;24.10;99.90;;;;;;6011409;23;20030;-67
2023/07/31 10:53:36;;;;;;;;;;;24.10;99.90;;;;;;6021164;23;19975;-64
2023/07/31 10:56:08;;;;;;;;;;;24.10;99.90;;;;;;6020422;23;19981;-63
2023/07/31 10:58:34;;;;;;;;;;;24.20;99.90;;;;;;6019359;23;19936;-64
2023/07/31 11:01:04;;;;;;;;;;;24.20;99.90;;;;;;6022254;23;19956;-64
2023/07/31 11:03:44;;;;;;;;;;;24.30;99.90;;;;;;6020750;23;20000;-64
2023/07/31 11:06:10;;;;;;;;;;;24.30;99.90;;;;;;6019429;23;19926;-64
2023/07/31 11:08:41;;;;;;;;;;;24.30;99.90;;;;;;6018855;23;20038;-64
2023/07/31 11:11:06;;;;;;;;;;;24.30;99.90;;;;;;6023917;23;19925;-64
2023/07/31 11:13:32;;;;;;;;;;;24.40;99.90;;;;;;6020085;23;19927;-68
2023/07/31 11:15:57;;;;;;;;;;;24.50;99.90;;;;;;6021030;23;19996;-69
2023/07/31 11:18:23;;;;;;;;;;;24.50;99.90;;;;;;6020306;23;20018;-69
2023/07/31 11:20:49;;;;;;;;;;;24.60;99.90;;;;;;6020376;23;20036;-69
2023/07/31 11:23:16;;;;;;;;;;;24.70;99.90;;;;;;6023625;23;19985;-69
2023/07/31 11:25:41;;;;;;;;;;;24.60;99.90;;;;;;6022023;23;19931;-69
2023/07/31 11:28:08;;;;;;;;;;;24.70;99.90;;;;;;5993273;23;19951;-69
2023/07/31 11:30:34;;;;;;;;;;;24.70;99.90;;;;;;6017648;23;19930;-69
2023/07/31 11:33:02;;;;;;;;;;;24.70;99.90;;;;;;6018080;23;20368;-69
2023/07/31 11:35:29;;;;;;;;;;;24.80;99.90;;;;;;6016899;23;19933;-69
2023/07/31 11:37:55;;;;;;;;;;;24.80;99.90;;;;;;6017738;23;19925;-69
2023/07/31 11:40:20;;;;;;;;;;;24.90;99.90;;;;;;6016264;23;19950;-68
2023/07/31 11:42:46;;;;;;;;;;;24.90;99.90;;;;;;6020650;23;19930;-68
2023/07/31 11:45:11;;;;;;;;;;;24.90;99.90;;;;;;6012344;23;19975;-69
2023/07/31 11:47:39;;;;;;;;;;;24.90;99.90;;;;;;6019214;23;20376;-69
2023/07/31 11:50:05;;;;;;;;;;;25.00;99.90;;;;;;6017309;23;19934;-65
2023/07/31 11:52:37;;;;;;;;;;;25.10;99.90;;;;;;6017055;23;19928;-65
2023/07/31 11:55:03;;;;;;;;;;;25.10;99.90;;;;;;6023181;23;19923;-65
2023/07/31 11:57:29;;;;;;;;;;;25.20;99.90;;;;;;6021629;23;19925;-65
2023/07/31 11:59:55;;;;;;;;;;;25.20;99.70;;;;;;6022107;23;20331;-66
2023/07/31 12:02:21;;;;;;;;;;;25.20;99.90;;;;;;6018559;23;19926;-65
2023/07/31 12:04:47;;;;;;;;;;;25.20;99.90;;;;;;6018913;23;19967;-73
2023/07/31 12:07:13;;;;;;;;;;;25.30;99.30;;;;;;6014822;23;20413;-64
2023/07/31 12:09:38;;;;;;;;;;;25.20;99.90;;;;;;6018337;23;20003;-65
2023/07/31 12:12:07;;;;;;;;;;;25.20;98.90;;;;;;6017282;23;20104;-64
2023/07/31 12:14:33;;;;;;;;;;;25.10;99.60;;;;;;6013897;23;20363;-65
2023/07/31 12:16:59;;;;;;;;;;;25.10;99.90;;;;;;6012981;23;19930;-64
2023/07/31 12:19:27;;;;;;;;;;;25.20;98.20;;;;;;6012980;23;20432;-64
2023/07/31 12:21:53;;;;;;;;;;;25.10;98.70;;;;;;6039657;23;19928;-64
2023/07/31 12:24:19;;;;;;;;;;;25.20;99.00;;;;;;6017907;23;19955;-64
2023/07/31 12:26:48;;;;;;;;;;;25.30;99.50;;;;;;6020220;23;19992;-69
2023/07/31 12:29:14;;;;;;;;;;;25.40;99.90;;;;;;6019342;23;19928;-70
2023/07/31 12:31:40;;;;;;;;;;;25.50;99.90;;;;;;5995778;23;19931;-70
2023/07/31 12:34:14;;;;;;;;;;;25.50;99.80;;;;;;6020416;23;19941;-70
2023/07/31 12:36:39;;;;;;;;;;;25.50;98.80;;;;;;6019867;23;20366;-70
2023/07/31 12:39:05;;;;;;;;;;;25.50;99.60;;;;;;6023258;23;19922;-69
2023/07/31 12:41:30;;;;;;;;;;;25.50;99.00;;;;;;6021105;23;19933;-69
2023/07/31 12:43:56;;;;;;;;;;;25.60;98.80;;;;;;6020688;23;19961;-69
2023/07/31 12:46:21;;;;;;;;;;;25.60;99.00;;;;;;6022378;23;19972;-69
2023/07/31 12:48:47;;;;;;;;;;;25.70;96.50;;;;;;6022502;23;20011;-68
2023/07/31 12:51:12;;;;;;;;;;;25.70;95.60;;;;;;6021274;23;20330;-67
2023/07/31 12:53:38;;;;;;;;;;;25.60;97.20;;;;;;6019875;23;20312;-67
2023/07/31 12:56:04;;;;;;;;;;;25.60;96.00;;;;;;6022425;23;19928;-67
2023/07/31 12:58:30;;;;;;;;;;;25.70;98.50;;;;;;5988451;23;19962;-67
2023/07/31 13:00:55;;;;;;;;;;;25.90;98.10;;;;;;6022014;23;19963;-65
2023/07/31 13:03:21;;;;;;;;;;;25.90;95.60;;;;;;6019367;23;19986;-64
2023/07/31 13:05:46;;;;;;;;;;;25.90;96.70;;;;;;6019852;23;19933;-64
2023/07/31 13:08:12;;;;;;;;;;;25.90;97.30;;;;;;6022058;23;19935;-65
2023/07/31 13:10:37;;;;;;;;;;;26.00;97.50;;;;;;6021394;23;20406;-64
2023/07/31 13:13:03;;;;;;;;;;;26.10;98.10;;;;;;6019017;23;20261;-64
2023/07/31 13:15:28;;;;;;;;;;;26.10;97.40;;;;;;5994755;23;19931;-64
2023/07/31 13:17:54;;;;;;;;;;;26.10;94.40;;;;;;6021990;23;19923;-64
2023/07/31 13:20:20;;;;;;;;;;;26.10;95.60;;;;;;6020572;23;19957;-64
2023/07/31 13:22:45;;;;;;;;;;;26.10;94.80;;;;;;6020869;23;19949;-64
2023/07/31 13:25:11;;;;;;;;;;;26.10;96.00;;;;;;6021392;23;19955;-64
2023/07/31 13:27:36;;;;;;;;;;;26.10;94.50;;;;;;6020370;23;19937;-64
2023/07/31 13:30:02;;;;;;;;;;;26.10;95.50;;;;;;6019502;23;20663;-64
2023/07/31 13:32:28;;;;;;;;;;;26.30;96.60;;;;;;6021957;23;20654;-64
2023/07/31 13:34:53;;;;;;;;;;;26.30;95.90;;;;;;6020368;23;19952;-64
2023/07/31 13:37:19;;;;;;;;;;;26.40;95.80;;;;;;6021465;23;19930;-65
2023/07/31 13:39:44;;;;;;;;;;;26.50;97.60;;;;;;6019079;23;20822;-64
2023/07/31 13:42:12;;;;;;;;;;;26.60;95.90;;;;;;6021166;23;19925;-64
2023/07/31 13:44:40;;;;;;;;;;;26.60;95.70;;;;;;6017015;23;20028;-65
2023/07/31 13:47:06;;;;;;;;;;;26.60;94.60;;;;;;6019264;23;19953;-65
2023/07/31 13:49:32;;;;;;;;;;;26.60;94.30;;;;;;6019352;23;19935;-64
2023/07/31 13:51:57;;;;;;;;;;;26.60;95.70;;;;;;6019735;23;19931;-64
2023/07/31 13:54:23;;;;;;;;;;;26.70;94.30;;;;;;6020115;23;19927;-65
2023/07/31 13:56:49;;;;;;;;;;;26.60;93.80;;;;;;6022978;23;19934;-65
2023/07/31 13:59:16;;;;;;;;;;;26.50;93.50;;;;;;6022108;23;19950;-65
2023/07/31 14:01:42;;;;;;;;;;;26.30;95.10;;;;;;6022742;23;19923;-63
2023/07/31 14:04:08;;;;;;;;;;;26.20;93.70;;;;;;6023303;23;20024;-64
2023/07/31 14:06:33;;;;;;;;;;;26.20;93.00;;;;;;6019217;23;20020;-64
2023/07/31 14:08:59;;;;;;;;;;;26.10;94.10;;;;;;5988635;23;19938;-64
2023/07/31 14:11:25;;;;;;;;;;;26.20;94.30;;;;;;6011213;23;20016;-63
2023/07/31 14:13:51;;;;;;;;;;;26.30;95.00;;;;;;6016184;23;19932;-63